Terminal Aerodrome Forecast
Issued by NWS King Salmon, AK

Home | Current Version | Previous Version | Text Only | Print | Product List | Glossary On
Versions: 1 2 3 4 5 6 7 8 9 10 11 12 13 14 15 16 17 18
000
FTAK31 PANC 051734
TAFAKN
TAF
PAKN 051734Z 0518/0618 05012KT P6SM BKN080
     FM051900 06016G26KT P6SM -RA BKN060
     FM060600 06009KT P6SM -RA BKN040
     FM061200 04005KT P6SM SCT040 OVC060=

USA.gov is the U.S. government's official web portal to all federal, state and local government web resources and services.